sensor_id;sensor_type;location;lat;lon;timestamp;P1;durP1;ratioP1;P2;durP2;ratioP2
4272;SDS011;63887;53.656;9.810;2023-02-28T00:01:25;17.42;;;11.32;;
4272;SDS011;63887;53.656;9.810;2023-02-28T00:03:53;20.10;;;11.23;;
4272;SDS011;63887;53.656;9.810;2023-02-28T00:06:20;21.55;;;11.80;;
4272;SDS011;63887;53.656;9.810;2023-02-28T00:08:46;12.73;;;10.13;;
4272;SDS011;63887;53.656;9.810;2023-02-28T00:11:14;12.25;;;10.18;;
4272;SDS011;63887;53.656;9.810;2023-02-28T00:13:42;12.82;;;10.27;;
4272;SDS011;63887;53.656;9.810;2023-02-28T00:16:12;12.20;;;9.85;;
4272;SDS011;63887;53.656;9.810;2023-02-28T00:18:40;18.00;;;11.75;;
4272;SDS011;63887;53.656;9.810;2023-02-28T00:21:08;14.45;;;10.20;;
4272;SDS011;63887;53.656;9.810;2023-02-28T00:23:35;15.55;;;11.02;;
4272;SDS011;63887;53.656;9.810;2023-02-28T00:26:02;12.50;;;10.45;;
4272;SDS011;63887;53.656;9.810;2023-02-28T00:28:29;14.40;;;10.73;;
4272;SDS011;63887;53.656;9.810;2023-02-28T00:30:56;18.60;;;10.63;;
4272;SDS011;63887;53.656;9.810;2023-02-28T00:33:24;15.13;;;10.40;;
4272;SDS011;63887;53.656;9.810;2023-02-28T00:35:51;19.08;;;9.35;;
4272;SDS011;63887;53.656;9.810;2023-02-28T00:38:19;13.93;;;10.80;;
4272;SDS011;63887;53.656;9.810;2023-02-28T00:40:45;12.85;;;11.00;;
4272;SDS011;63887;53.656;9.810;2023-02-28T00:43:12;15.15;;;11.20;;
4272;SDS011;63887;53.656;9.810;2023-02-28T00:45:38;10.95;;;9.93;;
4272;SDS011;63887;53.656;9.810;2023-02-28T00:48:05;11.52;;;9.93;;
4272;SDS011;63887;53.656;9.810;2023-02-28T00:50:31;9.95;;;9.13;;
4272;SDS011;63887;53.656;9.810;2023-02-28T00:52:58;12.82;;;10.27;;
4272;SDS011;63887;53.656;9.810;2023-02-28T00:55:26;17.60;;;11.00;;
4272;SDS011;63887;53.656;9.810;2023-02-28T00:57:52;10.95;;;9.90;;
4272;SDS011;63887;53.656;9.810;2023-02-28T01:00:19;14.05;;;9.73;;
4272;SDS011;63887;53.656;9.810;2023-02-28T01:02:45;12.35;;;10.68;;
4272;SDS011;63887;53.656;9.810;2023-02-28T01:05:12;14.35;;;10.70;;
4272;SDS011;63887;53.656;9.810;2023-02-28T01:07:38;14.48;;;9.48;;
4272;SDS011;63887;53.656;9.810;2023-02-28T01:10:05;10.95;;;9.85;;
4272;SDS011;63887;53.656;9.810;2023-02-28T01:12:33;9.90;;;8.38;;
4272;SDS011;63887;53.656;9.810;2023-02-28T01:15:00;15.38;;;9.93;;
4272;SDS011;63887;53.656;9.810;2023-02-28T01:17:26;10.77;;;8.93;;
4272;SDS011;63887;53.656;9.810;2023-02-28T01:19:53;9.20;;;8.50;;
4272;SDS011;63887;53.656;9.810;2023-02-28T01:22:20;12.63;;;9.32;;
4272;SDS011;63887;53.656;9.810;2023-02-28T01:24:47;9.98;;;9.10;;
4272;SDS011;63887;53.656;9.810;2023-02-28T01:27:13;10.75;;;9.70;;
4272;SDS011;63887;53.656;9.810;2023-02-28T01:29:41;8.90;;;8.20;;
4272;SDS011;63887;53.656;9.810;2023-02-28T01:32:08;15.98;;;8.82;;
4272;SDS011;63887;53.656;9.810;2023-02-28T01:34:34;19.30;;;9.82;;
4272;SDS011;63887;53.656;9.810;2023-02-28T01:37:00;9.40;;;8.60;;
4272;SDS011;63887;53.656;9.810;2023-02-28T01:39:28;14.95;;;9.05;;
4272;SDS011;63887;53.656;9.810;2023-02-28T01:41:55;17.42;;;10.40;;
4272;SDS011;63887;53.656;9.810;2023-02-28T01:47:27;9.60;;;7.38;;
4272;SDS011;63887;53.656;9.810;2023-02-28T01:49:56;14.30;;;8.80;;
4272;SDS011;63887;53.656;9.810;2023-02-28T01:52:24;15.93;;;9.13;;
4272;SDS011;63887;53.656;9.810;2023-02-28T01:54:53;10.18;;;9.10;;
4272;SDS011;63887;53.656;9.810;2023-02-28T01:57:24;13.52;;;10.07;;
4272;SDS011;63887;53.656;9.810;2023-02-28T01:59:55;14.98;;;10.07;;
4272;SDS011;63887;53.656;9.810;2023-02-28T02:02:25;14.13;;;10.70;;
4272;SDS011;63887;53.656;9.810;2023-02-28T02:04:54;12.38;;;10.52;;
4272;SDS011;63887;53.656;9.810;2023-02-28T02:07:22;10.15;;;9.25;;
4272;SDS011;63887;53.656;9.810;2023-02-28T02:09:56;10.52;;;9.50;;
4272;SDS011;63887;53.656;9.810;2023-02-28T02:12:27;11.10;;;9.35;;
4272;SDS011;63887;53.656;9.810;2023-02-28T02:15:03;15.52;;;9.77;;
4272;SDS011;63887;53.656;9.810;2023-02-28T02:17:39;16.17;;;10.57;;
4272;SDS011;63887;53.656;9.810;2023-02-28T02:26:33;12.98;;;10.80;;
4272;SDS011;63887;53.656;9.810;2023-02-28T02:29:30;19.05;;;10.15;;
4272;SDS011;63887;53.656;9.810;2023-02-28T02:32:20;23.73;;;11.20;;
4272;SDS011;63887;53.656;9.810;2023-02-28T02:35:05;17.63;;;10.70;;
4272;SDS011;63887;53.656;9.810;2023-02-28T02:37:39;17.63;;;10.50;;
4272;SDS011;63887;53.656;9.810;2023-02-28T02:40:14;18.23;;;10.90;;
4272;SDS011;63887;53.656;9.810;2023-02-28T02:42:45;12.90;;;10.82;;
4272;SDS011;63887;53.656;9.810;2023-02-28T02:45:18;17.35;;;11.07;;
4272;SDS011;63887;53.656;9.810;2023-02-28T02:47:48;22.45;;;10.88;;
4272;SDS011;63887;53.656;9.810;2023-02-28T02:50:19;14.85;;;10.48;;
4272;SDS011;63887;53.656;9.810;2023-02-28T02:52:51;15.88;;;11.20;;
4272;SDS011;63887;53.656;9.810;2023-02-28T02:55:21;13.85;;;11.50;;
4272;SDS011;63887;53.656;9.810;2023-02-28T02:57:49;22.08;;;13.73;;
4272;SDS011;63887;53.656;9.810;2023-02-28T03:00:20;14.90;;;11.32;;
4272;SDS011;63887;53.656;9.810;2023-02-28T03:02:55;19.42;;;11.30;;
4272;SDS011;63887;53.656;9.810;2023-02-28T03:05:25;15.48;;;12.20;;
4272;SDS011;63887;53.656;9.810;2023-02-28T03:07:53;19.50;;;11.35;;
4272;SDS011;63887;53.656;9.810;2023-02-28T03:10:30;17.35;;;12.63;;
4272;SDS011;63887;53.656;9.810;2023-02-28T03:13:15;14.38;;;12.02;;
4272;SDS011;63887;53.656;9.810;2023-02-28T03:16:02;20.45;;;12.30;;
4272;SDS011;63887;53.656;9.810;2023-02-28T03:18:43;17.83;;;12.70;;
4272;SDS011;63887;53.656;9.810;2023-02-28T03:21:22;20.38;;;11.60;;
4272;SDS011;63887;53.656;9.810;2023-02-28T03:23:53;15.38;;;12.00;;
4272;SDS011;63887;53.656;9.810;2023-02-28T03:26:25;19.55;;;10.85;;
4272;SDS011;63887;53.656;9.810;2023-02-28T03:28:54;21.67;;;11.38;;
4272;SDS011;63887;53.656;9.810;2023-02-28T03:31:29;12.80;;;11.50;;
4272;SDS011;63887;53.656;9.810;2023-02-28T03:34:00;17.10;;;11.98;;
4272;SDS011;63887;53.656;9.810;2023-02-28T03:36:32;13.30;;;10.30;;
4272;SDS011;63887;53.656;9.810;2023-02-28T03:39:09;16.42;;;11.65;;
4272;SDS011;63887;53.656;9.810;2023-02-28T03:41:41;16.50;;;12.07;;
4272;SDS011;63887;53.656;9.810;2023-02-28T03:44:13;22.77;;;11.52;;
4272;SDS011;63887;53.656;9.810;2023-02-28T03:46:44;21.52;;;11.98;;
4272;SDS011;63887;53.656;9.810;2023-02-28T03:49:15;15.48;;;12.02;;
4272;SDS011;63887;53.656;9.810;2023-02-28T03:51:46;16.27;;;11.55;;
4272;SDS011;63887;53.656;9.810;2023-02-28T03:54:17;15.93;;;11.05;;
4272;SDS011;63887;53.656;9.810;2023-02-28T03:56:48;14.40;;;11.30;;
4272;SDS011;63887;53.656;9.810;2023-02-28T03:59:20;14.27;;;10.77;;
4272;SDS011;63887;53.656;9.810;2023-02-28T04:01:50;13.30;;;11.30;;
4272;SDS011;63887;53.656;9.810;2023-02-28T04:04:17;17.33;;;12.23;;
4272;SDS011;63887;53.656;9.810;2023-02-28T04:06:45;14.48;;;11.00;;
4272;SDS011;63887;53.656;9.810;2023-02-28T04:09:15;14.32;;;10.77;;
4272;SDS011;63887;53.656;9.810;2023-02-28T04:11:42;20.67;;;11.77;;
4272;SDS011;63887;53.656;9.810;2023-02-28T04:14:11;15.25;;;11.90;;
4272;SDS011;63887;53.656;9.810;2023-02-28T04:16:38;20.83;;;13.10;;
4272;SDS011;63887;53.656;9.810;2023-02-28T04:19:06;18.02;;;12.48;;
4272;SDS011;63887;53.656;9.810;2023-02-28T04:21:35;20.67;;;12.02;;
4272;SDS011;63887;53.656;9.810;2023-02-28T04:24:05;19.20;;;12.40;;
4272;SDS011;63887;53.656;9.810;2023-02-28T04:26:33;15.13;;;11.35;;
4272;SDS011;63887;53.656;9.810;2023-02-28T04:29:01;14.45;;;11.40;;
4272;SDS011;63887;53.656;9.810;2023-02-28T04:31:29;15.50;;;10.88;;
4272;SDS011;63887;53.656;9.810;2023-02-28T04:33:56;17.95;;;12.25;;
4272;SDS011;63887;53.656;9.810;2023-02-28T04:36:23;12.23;;;10.57;;
4272;SDS011;63887;53.656;9.810;2023-02-28T04:38:49;15.85;;;11.30;;
4272;SDS011;63887;53.656;9.810;2023-02-28T04:41:17;12.90;;;10.40;;
4272;SDS011;63887;53.656;9.810;2023-02-28T04:43:44;20.00;;;11.18;;
4272;SDS011;63887;53.656;9.810;2023-02-28T04:46:11;14.80;;;11.05;;
4272;SDS011;63887;53.656;9.810;2023-02-28T04:48:38;12.93;;;11.63;;
4272;SDS011;63887;53.656;9.810;2023-02-28T04:51:06;12.63;;;10.10;;
4272;SDS011;63887;53.656;9.810;2023-02-28T04:53:34;11.98;;;10.68;;
4272;SDS011;63887;53.656;9.810;2023-02-28T04:56:01;18.63;;;11.77;;
4272;SDS011;63887;53.656;9.810;2023-02-28T04:58:30;13.07;;;10.88;;
4272;SDS011;63887;53.656;9.810;2023-02-28T05:01:01;12.80;;;10.82;;
4272;SDS011;63887;53.656;9.810;2023-02-28T05:03:28;16.23;;;10.82;;
4272;SDS011;63887;53.656;9.810;2023-02-28T05:05:55;11.75;;;9.98;;
4272;SDS011;63887;53.656;9.810;2023-02-28T05:08:21;16.60;;;11.43;;
4272;SDS011;63887;53.656;9.810;2023-02-28T05:10:48;17.08;;;11.00;;
4272;SDS011;63887;53.656;9.810;2023-02-28T05:13:14;16.83;;;10.60;;
4272;SDS011;63887;53.656;9.810;2023-02-28T05:15:42;10.70;;;9.15;;
4272;SDS011;63887;53.656;9.810;2023-02-28T05:18:08;13.07;;;10.45;;
4272;SDS011;63887;53.656;9.810;2023-02-28T05:20:35;15.35;;;10.50;;
4272;SDS011;63887;53.656;9.810;2023-02-28T05:23:02;12.60;;;10.95;;
4272;SDS011;63887;53.656;9.810;2023-02-28T05:25:29;11.57;;;10.27;;
4272;SDS011;63887;53.656;9.810;2023-02-28T05:27:55;12.18;;;9.77;;
4272;SDS011;63887;53.656;9.810;2023-02-28T05:30:22;12.30;;;11.10;;
4272;SDS011;63887;53.656;9.810;2023-02-28T05:32:51;12.45;;;10.32;;
4272;SDS011;63887;53.656;9.810;2023-02-28T05:35:17;12.32;;;11.25;;
4272;SDS011;63887;53.656;9.810;2023-02-28T05:37:44;14.57;;;12.38;;
4272;SDS011;63887;53.656;9.810;2023-02-28T05:40:10;15.45;;;11.98;;
4272;SDS011;63887;53.656;9.810;2023-02-28T05:42:37;11.23;;;10.07;;
4272;SDS011;63887;53.656;9.810;2023-02-28T05:45:04;13.10;;;10.48;;
4272;SDS011;63887;53.656;9.810;2023-02-28T05:47:32;12.10;;;11.00;;
4272;SDS011;63887;53.656;9.810;2023-02-28T05:50:00;12.43;;;10.05;;
4272;SDS011;63887;53.656;9.810;2023-02-28T05:52:27;21.20;;;10.45;;
4272;SDS011;63887;53.656;9.810;2023-02-28T05:54:54;18.30;;;10.88;;
4272;SDS011;63887;53.656;9.810;2023-02-28T05:57:21;13.85;;;9.98;;
4272;SDS011;63887;53.656;9.810;2023-02-28T05:59:48;18.48;;;11.40;;
4272;SDS011;63887;53.656;9.810;2023-02-28T06:02:15;21.50;;;11.80;;
4272;SDS011;63887;53.656;9.810;2023-02-28T06:04:43;10.50;;;9.50;;
4272;SDS011;63887;53.656;9.810;2023-02-28T06:07:11;16.05;;;12.43;;
4272;SDS011;63887;53.656;9.810;2023-02-28T06:09:37;21.50;;;10.93;;
4272;SDS011;63887;53.656;9.810;2023-02-28T06:12:05;16.25;;;11.90;;
4272;SDS011;63887;53.656;9.810;2023-02-28T06:14:34;12.88;;;10.68;;
4272;SDS011;63887;53.656;9.810;2023-02-28T06:17:01;17.88;;;11.27;;
4272;SDS011;63887;53.656;9.810;2023-02-28T06:19:28;12.73;;;11.45;;
4272;SDS011;63887;53.656;9.810;2023-02-28T06:21:56;12.15;;;11.02;;
4272;SDS011;63887;53.656;9.810;2023-02-28T06:24:26;14.70;;;11.00;;
4272;SDS011;63887;53.656;9.810;2023-02-28T06:26:53;15.38;;;11.80;;
4272;SDS011;63887;53.656;9.810;2023-02-28T06:29:20;12.23;;;10.90;;
4272;SDS011;63887;53.656;9.810;2023-02-28T06:31:46;11.50;;;10.50;;
4272;SDS011;63887;53.656;9.810;2023-02-28T06:34:13;15.85;;;10.98;;
4272;SDS011;63887;53.656;9.810;2023-02-28T06:36:41;22.13;;;11.93;;
4272;SDS011;63887;53.656;9.810;2023-02-28T06:39:08;11.70;;;10.65;;
4272;SDS011;63887;53.656;9.810;2023-02-28T06:41:36;11.57;;;10.40;;
4272;SDS011;63887;53.656;9.810;2023-02-28T06:44:05;19.95;;;11.40;;
4272;SDS011;63887;53.656;9.810;2023-02-28T06:46:31;21.77;;;11.90;;
4272;SDS011;63887;53.656;9.810;2023-02-28T06:48:58;13.55;;;10.55;;
4272;SDS011;63887;53.656;9.810;2023-02-28T06:51:24;16.65;;;12.00;;
4272;SDS011;63887;53.656;9.810;2023-02-28T06:53:52;12.00;;;10.57;;
4272;SDS011;63887;53.656;9.810;2023-02-28T06:56:18;20.00;;;10.88;;
4272;SDS011;63887;53.656;9.810;2023-02-28T06:58:47;17.52;;;11.10;;
4272;SDS011;63887;53.656;9.810;2023-02-28T07:01:14;28.60;;;11.60;;
4272;SDS011;63887;53.656;9.810;2023-02-28T07:03:41;15.13;;;11.55;;
4272;SDS011;63887;53.656;9.810;2023-02-28T07:06:08;16.30;;;10.48;;
4272;SDS011;63887;53.656;9.810;2023-02-28T07:08:34;15.10;;;10.65;;
4272;SDS011;63887;53.656;9.810;2023-02-28T07:11:02;11.18;;;10.18;;
4272;SDS011;63887;53.656;9.810;2023-02-28T07:13:29;18.70;;;10.80;;
4272;SDS011;63887;53.656;9.810;2023-02-28T07:15:57;12.75;;;11.52;;
4272;SDS011;63887;53.656;9.810;2023-02-28T07:18:25;18.45;;;12.27;;
4272;SDS011;63887;53.656;9.810;2023-02-28T07:20:52;17.23;;;11.80;;
4272;SDS011;63887;53.656;9.810;2023-02-28T07:23:19;14.23;;;10.77;;
4272;SDS011;63887;53.656;9.810;2023-02-28T07:25:46;12.25;;;11.20;;
4272;SDS011;63887;53.656;9.810;2023-02-28T07:28:13;16.50;;;11.25;;
4272;SDS011;63887;53.656;9.810;2023-02-28T07:30:40;12.18;;;10.98;;
4272;SDS011;63887;53.656;9.810;2023-02-28T07:33:08;14.70;;;11.13;;
4272;SDS011;63887;53.656;9.810;2023-02-28T07:35:34;16.08;;;11.25;;
4272;SDS011;63887;53.656;9.810;2023-02-28T07:38:01;14.20;;;11.38;;
4272;SDS011;63887;53.656;9.810;2023-02-28T07:40:28;12.20;;;10.75;;
4272;SDS011;63887;53.656;9.810;2023-02-28T07:42:55;21.08;;;11.13;;
4272;SDS011;63887;53.656;9.810;2023-02-28T07:45:22;12.18;;;10.60;;
4272;SDS011;63887;53.656;9.810;2023-02-28T07:47:48;10.52;;;9.35;;
4272;SDS011;63887;53.656;9.810;2023-02-28T07:50:16;10.30;;;9.30;;
4272;SDS011;63887;53.656;9.810;2023-02-28T07:52:42;11.35;;;9.43;;
4272;SDS011;63887;53.656;9.810;2023-02-28T07:55:09;11.20;;;9.65;;
4272;SDS011;63887;53.656;9.810;2023-02-28T07:57:36;10.07;;;9.18;;
4272;SDS011;63887;53.656;9.810;2023-02-28T08:00:03;11.05;;;8.15;;
4272;SDS011;63887;53.656;9.810;2023-02-28T08:02:31;8.45;;;7.90;;
4272;SDS011;63887;53.656;9.810;2023-02-28T08:04:57;10.13;;;9.13;;
4272;SDS011;63887;53.656;9.810;2023-02-28T08:07:25;10.20;;;8.65;;
4272;SDS011;63887;53.656;9.810;2023-02-28T08:09:51;9.52;;;8.48;;
4272;SDS011;63887;53.656;9.810;2023-02-28T08:12:18;8.57;;;7.75;;
4272;SDS011;63887;53.656;9.810;2023-02-28T08:14:44;8.20;;;7.63;;
4272;SDS011;63887;53.656;9.810;2023-02-28T08:17:11;19.50;;;9.82;;
4272;SDS011;63887;53.656;9.810;2023-02-28T08:19:38;11.40;;;8.30;;
4272;SDS011;63887;53.656;9.810;2023-02-28T08:22:04;9.35;;;8.50;;
4272;SDS011;63887;53.656;9.810;2023-02-28T08:24:32;9.90;;;9.30;;
4272;SDS011;63887;53.656;9.810;2023-02-28T08:26:58;8.00;;;7.50;;
4272;SDS011;63887;53.656;9.810;2023-02-28T08:29:25;8.88;;;8.23;;
4272;SDS011;63887;53.656;9.810;2023-02-28T08:31:51;9.82;;;7.55;;
4272;SDS011;63887;53.656;9.810;2023-02-28T08:34:18;9.07;;;8.40;;
4272;SDS011;63887;53.656;9.810;2023-02-28T08:36:44;9.05;;;8.48;;
4272;SDS011;63887;53.656;9.810;2023-02-28T08:39:11;9.30;;;8.80;;
4272;SDS011;63887;53.656;9.810;2023-02-28T08:41:39;10.32;;;9.27;;
4272;SDS011;63887;53.656;9.810;2023-02-28T08:44:06;10.05;;;9.07;;
4272;SDS011;63887;53.656;9.810;2023-02-28T08:46:32;10.88;;;9.52;;
4272;SDS011;63887;53.656;9.810;2023-02-28T08:48:59;14.82;;;12.13;;
4272;SDS011;63887;53.656;9.810;2023-02-28T08:51:27;14.27;;;10.02;;
4272;SDS011;63887;53.656;9.810;2023-02-28T08:53:54;11.43;;;10.63;;
4272;SDS011;63887;53.656;9.810;2023-02-28T08:56:21;16.48;;;11.35;;
4272;SDS011;63887;53.656;9.810;2023-02-28T08:58:50;10.40;;;9.77;;
4272;SDS011;63887;53.656;9.810;2023-02-28T09:01:20;9.90;;;9.05;;
4272;SDS011;63887;53.656;9.810;2023-02-28T09:03:49;9.80;;;9.00;;
4272;SDS011;63887;53.656;9.810;2023-02-28T09:06:17;9.43;;;8.70;;
4272;SDS011;63887;53.656;9.810;2023-02-28T09:08:45;9.95;;;9.40;;
4272;SDS011;63887;53.656;9.810;2023-02-28T09:11:11;8.32;;;7.90;;
4272;SDS011;63887;53.656;9.810;2023-02-28T09:13:39;7.97;;;7.45;;
4272;SDS011;63887;53.656;9.810;2023-02-28T09:16:08;7.40;;;7.10;;
4272;SDS011;63887;53.656;9.810;2023-02-28T09:18:37;7.32;;;6.90;;
4272;SDS011;63887;53.656;9.810;2023-02-28T09:21:04;7.60;;;7.40;;
4272;SDS011;63887;53.656;9.810;2023-02-28T09:23:31;6.70;;;6.55;;
4272;SDS011;63887;53.656;9.810;2023-02-28T09:25:57;6.68;;;6.35;;
4272;SDS011;63887;53.656;9.810;2023-02-28T09:28:24;6.90;;;6.78;;
4272;SDS011;63887;53.656;9.810;2023-02-28T09:30:51;7.65;;;7.15;;
4272;SDS011;63887;53.656;9.810;2023-02-28T09:33:21;7.10;;;6.80;;
4272;SDS011;63887;53.656;9.810;2023-02-28T09:35:48;7.18;;;6.85;;
4272;SDS011;63887;53.656;9.810;2023-02-28T09:38:15;6.85;;;6.63;;
4272;SDS011;63887;53.656;9.810;2023-02-28T09:40:45;7.82;;;7.50;;
4272;SDS011;63887;53.656;9.810;2023-02-28T09:43:15;7.32;;;6.93;;
4272;SDS011;63887;53.656;9.810;2023-02-28T09:45:46;8.73;;;7.93;;
4272;SDS011;63887;53.656;9.810;2023-02-28T09:48:17;6.65;;;6.30;;
4272;SDS011;63887;53.656;9.810;2023-02-28T09:50:49;6.95;;;6.75;;
4272;SDS011;63887;53.656;9.810;2023-02-28T09:53:19;6.93;;;6.75;;
4272;SDS011;63887;53.656;9.810;2023-02-28T09:55:48;7.00;;;6.88;;
4272;SDS011;63887;53.656;9.810;2023-02-28T09:58:19;7.10;;;6.70;;
4272;SDS011;63887;53.656;9.810;2023-02-28T10:00:50;7.90;;;7.33;;
4272;SDS011;63887;53.656;9.810;2023-02-28T10:03:29;6.80;;;6.70;;
4272;SDS011;63887;53.656;9.810;2023-02-28T10:06:04;7.70;;;7.25;;
4272;SDS011;63887;53.656;9.810;2023-02-28T10:08:36;6.35;;;6.25;;
4272;SDS011;63887;53.656;9.810;2023-02-28T10:11:07;8.10;;;7.70;;
4272;SDS011;63887;53.656;9.810;2023-02-28T10:13:39;7.68;;;7.47;;
4272;SDS011;63887;53.656;9.810;2023-02-28T10:16:19;7.63;;;7.38;;
4272;SDS011;63887;53.656;9.810;2023-02-28T10:18:52;8.07;;;7.78;;
4272;SDS011;63887;53.656;9.810;2023-02-28T10:21:26;7.70;;;7.20;;
4272;SDS011;63887;53.656;9.810;2023-02-28T10:23:59;8.03;;;7.63;;
4272;SDS011;63887;53.656;9.810;2023-02-28T10:26:31;8.13;;;7.80;;
4272;SDS011;63887;53.656;9.810;2023-02-28T10:28:59;7.63;;;7.07;;
4272;SDS011;63887;53.656;9.810;2023-02-28T10:31:26;7.90;;;7.40;;
4272;SDS011;63887;53.656;9.810;2023-02-28T10:33:52;7.20;;;6.33;;
4272;SDS011;63887;53.656;9.810;2023-02-28T10:36:19;7.47;;;7.17;;
4272;SDS011;63887;53.656;9.810;2023-02-28T10:38:48;12.97;;;8.57;;
4272;SDS011;63887;53.656;9.810;2023-02-28T10:41:16;6.93;;;6.82;;
4272;SDS011;63887;53.656;9.810;2023-02-28T10:43:53;7.67;;;6.93;;
4272;SDS011;63887;53.656;9.810;2023-02-28T10:46:39;7.25;;;6.95;;
4272;SDS011;63887;53.656;9.810;2023-02-28T10:49:12;7.10;;;6.77;;
4272;SDS011;63887;53.656;9.810;2023-02-28T10:51:41;7.80;;;7.40;;
4272;SDS011;63887;53.656;9.810;2023-02-28T10:54:16;7.23;;;6.93;;
4272;SDS011;63887;53.656;9.810;2023-02-28T10:56:44;6.50;;;6.30;;
4272;SDS011;63887;53.656;9.810;2023-02-28T10:59:26;7.27;;;6.77;;
4272;SDS011;63887;53.656;9.810;2023-02-28T11:01:54;7.27;;;7.07;;
4272;SDS011;63887;53.656;9.810;2023-02-28T11:04:31;7.10;;;6.80;;
4272;SDS011;63887;53.656;9.810;2023-02-28T11:07:01;6.70;;;6.40;;
4272;SDS011;63887;53.656;9.810;2023-02-28T11:09:32;8.27;;;7.78;;
4272;SDS011;63887;53.656;9.810;2023-02-28T11:12:00;7.38;;;7.07;;
4272;SDS011;63887;53.656;9.810;2023-02-28T11:14:28;7.22;;;7.00;;
4272;SDS011;63887;53.656;9.810;2023-02-28T11:16:58;7.55;;;7.05;;
4272;SDS011;63887;53.656;9.810;2023-02-28T11:19:30;6.78;;;6.45;;
4272;SDS011;63887;53.656;9.810;2023-02-28T11:22:04;7.20;;;6.85;;
4272;SDS011;63887;53.656;9.810;2023-02-28T11:24:33;6.82;;;6.53;;
4272;SDS011;63887;53.656;9.810;2023-02-28T11:27:03;7.20;;;7.00;;
4272;SDS011;63887;53.656;9.810;2023-02-28T11:29:30;9.88;;;6.70;;
4272;SDS011;63887;53.656;9.810;2023-02-28T11:34:42;7.90;;;7.50;;
4272;SDS011;63887;53.656;9.810;2023-02-28T11:37:11;7.45;;;6.88;;
4272;SDS011;63887;53.656;9.810;2023-02-28T11:39:40;8.53;;;7.70;;
4272;SDS011;63887;53.656;9.810;2023-02-28T11:42:14;9.60;;;8.00;;
4272;SDS011;63887;53.656;9.810;2023-02-28T11:45:01;7.57;;;6.97;;
4272;SDS011;63887;53.656;9.810;2023-02-28T11:47:43;12.55;;;7.68;;
4272;SDS011;63887;53.656;9.810;2023-02-28T11:50:20;7.43;;;7.10;;
4272;SDS011;63887;53.656;9.810;2023-02-28T11:52:59;8.13;;;7.67;;
4272;SDS011;63887;53.656;9.810;2023-02-28T11:55:29;8.10;;;7.70;;
4272;SDS011;63887;53.656;9.810;2023-02-28T11:58:13;8.30;;;7.80;;
4272;SDS011;63887;53.656;9.810;2023-02-28T12:00:53;8.23;;;7.70;;
4272;SDS011;63887;53.656;9.810;2023-02-28T12:03:27;7.50;;;7.00;;
4272;SDS011;63887;53.656;9.810;2023-02-28T12:06:02;8.02;;;7.72;;
4272;SDS011;63887;53.656;9.810;2023-02-28T12:08:44;7.57;;;7.37;;
4272;SDS011;63887;53.656;9.810;2023-02-28T12:11:19;6.78;;;6.68;;
4272;SDS011;63887;53.656;9.810;2023-02-28T12:14:03;8.77;;;8.03;;
4272;SDS011;63887;53.656;9.810;2023-02-28T12:16:46;9.68;;;8.30;;
4272;SDS011;63887;53.656;9.810;2023-02-28T12:19:22;8.63;;;7.80;;
4272;SDS011;63887;53.656;9.810;2023-02-28T12:21:57;7.50;;;7.10;;
4272;SDS011;63887;53.656;9.810;2023-02-28T12:24:40;8.30;;;7.67;;
4272;SDS011;63887;53.656;9.810;2023-02-28T12:27:27;7.77;;;7.47;;
4272;SDS011;63887;53.656;9.810;2023-02-28T12:29:58;7.47;;;7.10;;
4272;SDS011;63887;53.656;9.810;2023-02-28T12:32:30;7.90;;;7.50;;
4272;SDS011;63887;53.656;9.810;2023-02-28T12:35:01;7.17;;;6.97;;
4272;SDS011;63887;53.656;9.810;2023-02-28T12:37:31;7.50;;;7.20;;
4272;SDS011;63887;53.656;9.810;2023-02-28T12:40:04;7.20;;;6.90;;
4272;SDS011;63887;53.656;9.810;2023-02-28T12:42:39;7.30;;;7.00;;
4272;SDS011;63887;53.656;9.810;2023-02-28T12:45:10;6.83;;;6.63;;
4272;SDS011;63887;53.656;9.810;2023-02-28T12:47:42;6.53;;;6.32;;
4272;SDS011;63887;53.656;9.810;2023-02-28T12:50:10;6.90;;;6.50;;
4272;SDS011;63887;53.656;9.810;2023-02-28T12:52:39;7.37;;;7.07;;
4272;SDS011;63887;53.656;9.810;2023-02-28T12:55:13;7.78;;;7.45;;
4272;SDS011;63887;53.656;9.810;2023-02-28T12:57:48;7.53;;;7.20;;
4272;SDS011;63887;53.656;9.810;2023-02-28T13:00:22;7.90;;;7.13;;
4272;SDS011;63887;53.656;9.810;2023-02-28T13:03:06;7.77;;;7.23;;
4272;SDS011;63887;53.656;9.810;2023-02-28T13:06:01;8.30;;;7.60;;
4272;SDS011;63887;53.656;9.810;2023-02-28T13:08:40;6.87;;;6.67;;
4272;SDS011;63887;53.656;9.810;2023-02-28T13:11:25;7.40;;;6.97;;
4272;SDS011;63887;53.656;9.810;2023-02-28T13:14:00;6.87;;;6.73;;
4272;SDS011;63887;53.656;9.810;2023-02-28T13:16:28;7.80;;;7.50;;
4272;SDS011;63887;53.656;9.810;2023-02-28T13:19:17;6.80;;;6.60;;
4272;SDS011;63887;53.656;9.810;2023-02-28T13:21:46;7.43;;;7.13;;
4272;SDS011;63887;53.656;9.810;2023-02-28T13:30:00;6.43;;;6.23;;
4272;SDS011;63887;53.656;9.810;2023-02-28T13:32:28;7.57;;;7.10;;
4272;SDS011;63887;53.656;9.810;2023-02-28T13:38:16;7.37;;;7.07;;
4272;SDS011;63887;53.656;9.810;2023-02-28T13:40:48;8.10;;;7.63;;
4272;SDS011;63887;53.656;9.810;2023-02-28T13:43:16;8.00;;;7.80;;
4272;SDS011;63887;53.656;9.810;2023-02-28T13:48:36;7.60;;;7.23;;
4272;SDS011;63887;53.656;9.810;2023-02-28T13:54:06;8.10;;;7.80;;
4272;SDS011;63887;53.656;9.810;2023-02-28T13:56:44;8.43;;;8.07;;
4272;SDS011;63887;53.656;9.810;2023-02-28T13:59:16;8.27;;;7.93;;
4272;SDS011;63887;53.656;9.810;2023-02-28T14:01:57;8.20;;;7.70;;
4272;SDS011;63887;53.656;9.810;2023-02-28T14:04:56;9.43;;;8.47;;
4272;SDS011;63887;53.656;9.810;2023-02-28T14:07:28;8.60;;;7.90;;
4272;SDS011;63887;53.656;9.810;2023-02-28T14:09:59;8.93;;;7.20;;
4272;SDS011;63887;53.656;9.810;2023-02-28T14:15:46;8.77;;;8.27;;
4272;SDS011;63887;53.656;9.810;2023-02-28T14:18:17;7.90;;;7.60;;
4272;SDS011;63887;53.656;9.810;2023-02-28T14:20:47;7.70;;;7.40;;
4272;SDS011;63887;53.656;9.810;2023-02-28T14:23:18;8.53;;;7.97;;
4272;SDS011;63887;53.656;9.810;2023-02-28T14:26:01;7.10;;;6.80;;
4272;SDS011;63887;53.656;9.810;2023-02-28T14:28:43;7.77;;;7.57;;
4272;SDS011;63887;53.656;9.810;2023-02-28T14:31:22;8.20;;;7.27;;
4272;SDS011;63887;53.656;9.810;2023-02-28T14:34:02;7.50;;;7.03;;
4272;SDS011;63887;53.656;9.810;2023-02-28T14:36:42;6.67;;;6.47;;
4272;SDS011;63887;53.656;9.810;2023-02-28T14:39:12;7.07;;;6.87;;
4272;SDS011;63887;53.656;9.810;2023-02-28T14:41:41;7.77;;;7.57;;
4272;SDS011;63887;53.656;9.810;2023-02-28T14:44:13;9.10;;;8.63;;
4272;SDS011;63887;53.656;9.810;2023-02-28T14:46:41;8.13;;;7.67;;
4272;SDS011;63887;53.656;9.810;2023-02-28T14:49:15;7.80;;;7.47;;
4272;SDS011;63887;53.656;9.810;2023-02-28T14:51:44;7.90;;;7.53;;
4272;SDS011;63887;53.656;9.810;2023-02-28T14:54:13;8.03;;;7.70;;
4272;SDS011;63887;53.656;9.810;2023-02-28T14:56:41;8.10;;;7.60;;
4272;SDS011;63887;53.656;9.810;2023-02-28T14:59:22;10.90;;;9.90;;
4272;SDS011;63887;53.656;9.810;2023-02-28T15:01:51;11.87;;;10.77;;
4272;SDS011;63887;53.656;9.810;2023-02-28T15:04:21;8.53;;;8.13;;
4272;SDS011;63887;53.656;9.810;2023-02-28T15:07:06;9.63;;;6.90;;
4272;SDS011;63887;53.656;9.810;2023-02-28T15:09:33;8.33;;;7.90;;
4272;SDS011;63887;53.656;9.810;2023-02-28T15:11:59;7.20;;;6.77;;
4272;SDS011;63887;53.656;9.810;2023-02-28T15:14:26;7.17;;;6.87;;
4272;SDS011;63887;53.656;9.810;2023-02-28T15:16:55;12.47;;;7.10;;
4272;SDS011;63887;53.656;9.810;2023-02-28T15:19:26;7.23;;;6.57;;
4272;SDS011;63887;53.656;9.810;2023-02-28T15:21:56;7.87;;;7.57;;
4272;SDS011;63887;53.656;9.810;2023-02-28T15:24:28;7.70;;;7.30;;
4272;SDS011;63887;53.656;9.810;2023-02-28T15:27:02;6.63;;;6.33;;
4272;SDS011;63887;53.656;9.810;2023-02-28T15:29:32;6.87;;;6.23;;
4272;SDS011;63887;53.656;9.810;2023-02-28T15:32:07;8.00;;;7.50;;
4272;SDS011;63887;53.656;9.810;2023-02-28T15:34:52;7.27;;;6.80;;
4272;SDS011;63887;53.656;9.810;2023-02-28T15:37:30;7.87;;;7.13;;